Plentywood, MT (59254)

8:05 AM MDT on August 01, 2014 (GMT -0600)
Sloulin International (KISN) Elev 1906 ft | 48.17 °N, 103.64 °W | Change Station

Current weather conditions updated 13 minutes ago

Clear
Clear
69 °F
Feels Like 69 °F
N
13
Wind Variable Wind from North

Today is forecast to be nearly the same temperature as yesterday.

Today
High -- | Low -- °F
--% Chance of Precip.
Yesterday
High -- | Low -- °F
Precip. -- in
5:32 AM 8:36 PM
Waxing Crescent, 26% visible
Pressure 30.05 in
Visibility 10.0 miles
Clouds Clear
Dew Point 56 °F
Humidity 63%
Rainfall 0.00 in
Snow Depth Not available.
UV 2 out of 12
Pollen 7.50 out of 12
Air Quality Not available.
Flu Activity Not available.
METAR KISN 011352Z AUTO 35011KT 10SM CLR 21/13 A3008 RMK AO2 SLP176 T02060133

More Conditions Fewer Conditions

Pressure 30.05 in
Visibility 10.0 miles
Clouds Clear
Dew Point 56 °F
Humidity 63%
Rainfall 0.00 in
Snow Depth Not available.
UV 2 out of 12
Pollen 7.50 out of 12
Air Quality Not available.
Flu Activity Not available.
METAR KISN 011352Z AUTO 35011KT 10SM CLR 21/13 A3008 RMK AO2 SLP176 T02060133

More Conditions Fewer Conditions

10-Day Weather Forecast

Almanac

Astronomy

Aug. 01, 2014 Rise Set
Actual Time 5:32 AM MDT 8:36 PM MDT
Civil Twilight 4:54 AM MDT 9:13 PM MDT
Nautical Twilight 4:06 AM MDT 10:02 PM MDT
Astronomical Twilight 3:05 AM MDT 11:01 PM MDT
Moon 11:30 AM MDT 10:48 PM MDT
Length of Visible Light 16h 19m
Length of Day
15h 04m
Tomorrow will be 2m 49s shorter.
Waxing Crescent, 26% of the Moon is Illuminated
Today
Waxing Crescent
Aug 3
First Quarter
Aug 10
Full
Aug 17
Last Quarter
Aug 25
New

Today's Extremes

State Highs State Lows

Community

WunderPhotos

Upload Photos

1,739,574 photos uploaded!

Nearby

Snow Depth

Station Depth Elevation
Rocky Boy 0 in 4700 ft
Crystal Lake 0 in 6050 ft
Spur Park 0 in 8100 ft
Deadman Creek 0 in 6450 ft
Onion Park 0 in 7410 ft

Earthquake Activity

City Distance Mag. Time & Date
No recent earthquake activity has been reported nearby.
Minimum magnitude displayed is 2.5.

Coastal Water Temperatures

Place Temperature
No Stations Reporting

Nearby Weather Stations

Station Location Temp. Dew Point Humidity Wind Precip. Elev Updated Type
MesoWest ATOR CREEK , Raymond, MT 63 °F 59 °F 88% North  at  0 mph 0.00 in / hr 2270 ft 7:04 AM MDT MADIS
HADS BIG MUDDY CREEK NEAR ANTELOPE 3S MT, Antelope, MT 64 °F - - North  at  - 0.00 in / hr 2000 ft 7:15 AM MDT MADIS
MesoWest Navajo MT-5 16.7 , Redstone, MT 62 °F 58 °F 86% NE  at  12 mph 0.00 in / hr 2568 ft 6:41 AM MDT MADIS
MesoWest Comertown Turn-Off MT-5 MP 13.4, Westby, MT 64 °F 58 °F 80% North  at  9 mph 0.00 in / hr 2100 ft 6:43 AM MDT MADIS
RAWS MEDICINE LAKE MT, Medicine Lake, MT 63 °F 63 °F 100% NE  at  12 mph 0.10 in / hr 1975 ft 6:58 AM MDT MADIS

Show More Stations Show Fewer Stations